createdAt,value
2019-02-04T00:02:08.446Z,85.75
2019-02-04T00:04:38.551Z,85.82
2019-02-04T00:07:08.703Z,85.84
2019-02-04T00:09:39.289Z,85.84
2019-02-04T00:12:09.274Z,85.86
2019-02-04T00:14:39.169Z,85.84
2019-02-04T00:17:09.113Z,85.87
2019-02-04T00:19:39.222Z,85.91
2019-02-04T00:22:09.044Z,85.93
2019-02-04T00:24:38.962Z,85.97
2019-02-04T00:27:08.845Z,85.99
2019-02-04T00:29:40.069Z,86.03
2019-02-04T00:32:10.018Z,86.01
2019-02-04T00:34:40.021Z,86.00
2019-02-04T00:37:11.198Z,85.99
2019-02-04T00:39:41.399Z,85.93
2019-02-04T00:42:11.221Z,85.87
2019-02-04T00:44:41.217Z,85.82
2019-02-04T00:47:11.123Z,85.62
2019-02-04T00:49:41.510Z,85.62
2019-02-04T00:52:11.480Z,85.63
2019-02-04T00:54:42.656Z,84.51
2019-02-04T00:57:12.686Z,83.49
2019-02-04T00:59:42.483Z,84.04
2019-02-04T01:02:13.141Z,83.81
2019-02-04T01:04:43.244Z,82.60
2019-02-04T01:07:13.249Z,81.03
2019-02-04T01:09:44.379Z,80.43
2019-02-04T01:12:14.197Z,79.39
2019-02-04T01:14:43.996Z,76.35
2019-02-04T01:17:15.475Z,76.70
2019-02-04T01:19:45.360Z,80.57
2019-02-04T01:22:15.609Z,81.24
2019-02-04T01:24:48.066Z,77.70
2019-02-04T01:27:18.295Z,78.23
2019-02-04T01:29:48.447Z,78.09
2019-02-04T01:32:18.725Z,79.01
2019-02-04T01:34:48.986Z,80.81
2019-02-04T01:37:18.873Z,81.83
2019-02-04T01:39:48.742Z,81.34
2019-02-04T01:42:19.179Z,81.90
2019-02-04T01:44:49.149Z,81.34
2019-02-04T01:47:18.969Z,80.96
2019-02-04T01:49:48.821Z,80.24
2019-02-04T01:52:18.681Z,79.98
2019-02-04T01:54:48.501Z,81.63
2019-02-04T01:57:18.501Z,82.20
2019-02-04T01:59:48.477Z,81.74
2019-02-04T02:02:18.453Z,80.85
2019-02-04T02:04:48.338Z,80.97
2019-02-04T02:07:18.288Z,81.26
2019-02-04T02:09:48.721Z,82.72
2019-02-04T02:12:18.688Z,83.37
2019-02-04T02:14:48.566Z,84.35
2019-02-04T02:17:25.995Z,83.58
2019-02-04T02:19:49.885Z,82.86
2019-02-04T02:22:19.956Z,82.37
2019-02-04T02:24:49.662Z,82.79
2019-02-04T02:27:20.947Z,82.92
2019-02-04T02:29:50.857Z,82.95
2019-02-04T02:32:20.769Z,82.55
2019-02-04T02:34:51.833Z,82.52
2019-02-04T02:37:22.015Z,82.68
2019-02-04T02:39:51.831Z,82.74
2019-02-04T02:42:22.816Z,82.50
2019-02-04T02:44:52.610Z,81.49
2019-02-04T02:47:22.509Z,80.62
2019-02-04T02:49:52.864Z,77.13
2019-02-04T02:52:22.845Z,76.48
2019-02-04T02:54:52.807Z,76.88
2019-02-04T02:57:22.776Z,76.65
2019-02-04T02:59:52.490Z,76.64
2019-02-04T03:02:22.345Z,75.52
2019-02-04T03:04:52.642Z,75.08
2019-02-04T03:07:22.679Z,73.63
2019-02-04T03:09:52.581Z,70.18
2019-02-04T03:12:22.606Z,71.16
2019-02-04T03:14:52.772Z,72.76
2019-02-04T03:17:23.149Z,73.64
2019-02-04T03:19:53.053Z,73.61
2019-02-04T03:22:22.918Z,73.82
2019-02-04T03:24:52.780Z,75.23
2019-02-04T03:27:22.509Z,75.16
2019-02-04T03:29:52.453Z,75.44
2019-02-04T03:32:22.549Z,74.94
2019-02-04T03:34:52.468Z,73.23
2019-02-04T03:37:22.639Z,73.44
2019-02-04T03:39:52.513Z,73.29
2019-02-04T03:42:22.412Z,70.58
2019-02-04T03:44:52.782Z,71.43
2019-02-04T03:47:22.874Z,71.40
2019-02-04T03:49:53.422Z,72.37
2019-02-04T03:52:23.256Z,71.84
2019-02-04T03:54:53.217Z,69.38
2019-02-04T03:57:23.040Z,69.54
2019-02-04T03:59:53.196Z,68.81
2019-02-04T04:02:23.081Z,65.91
2019-02-04T04:04:53.000Z,63.56
2019-02-04T04:07:24.045Z,62.41
2019-02-04T04:09:54.060Z,62.20
2019-02-04T04:12:23.864Z,61.78
2019-02-04T04:14:53.620Z,60.85
2019-02-04T04:17:23.478Z,60.20
2019-02-04T04:19:53.529Z,60.30
2019-02-04T04:22:23.461Z,58.93
2019-02-04T04:24:53.677Z,56.71
2019-02-04T04:27:23.668Z,55.78
2019-02-04T04:29:53.630Z,55.17
2019-02-04T04:32:23.505Z,55.00
2019-02-04T04:34:53.430Z,53.69
2019-02-04T04:37:23.295Z,53.11
2019-02-04T04:39:54.748Z,52.95
2019-02-04T04:42:24.504Z,52.93
2019-02-04T04:44:54.656Z,52.34
2019-02-04T04:47:25.869Z,53.07
2019-02-04T04:49:56.737Z,53.10
2019-02-04T04:52:27.279Z,53.19
2019-02-04T04:54:57.411Z,52.62
2019-02-04T04:57:27.475Z,52.34
2019-02-04T04:59:57.395Z,53.04
2019-02-04T05:02:27.367Z,52.81
2019-02-04T05:04:57.530Z,51.04
2019-02-04T05:07:27.189Z,50.44
2019-02-04T05:09:57.076Z,49.93
2019-02-04T05:12:26.977Z,49.60
2019-02-04T05:14:56.866Z,49.59
2019-02-04T05:17:26.727Z,49.57
2019-02-04T05:19:56.844Z,49.11
2019-02-04T05:22:26.818Z,48.72
2019-02-04T05:24:56.670Z,50.78
2019-02-04T05:27:26.433Z,52.98
2019-02-04T05:29:56.630Z,55.55
2019-02-04T05:32:26.842Z,56.27
2019-02-04T05:34:57.534Z,57.49
2019-02-04T05:37:30.773Z,56.75
2019-02-04T05:40:00.622Z,56.76
2019-02-04T05:42:30.606Z,57.18
2019-02-04T05:45:00.412Z,57.51
2019-02-04T05:47:30.170Z,58.19
2019-02-04T05:49:59.944Z,57.86
2019-02-04T05:52:29.934Z,59.69
2019-02-04T05:54:59.668Z,64.14
2019-02-04T05:57:29.859Z,66.58
2019-02-04T06:00:00.011Z,68.39
2019-02-04T06:02:29.832Z,69.01
2019-02-04T06:04:59.742Z,68.38
2019-02-04T06:07:29.687Z,68.41
2019-02-04T06:09:59.682Z,69.12
2019-02-04T06:12:29.490Z,68.99
2019-02-04T06:14:59.485Z,72.47
2019-02-04T06:17:29.329Z,73.28
2019-02-04T06:19:59.256Z,74.29
2019-02-04T06:22:29.404Z,74.76
2019-02-04T06:24:59.477Z,75.30
2019-02-04T06:27:30.202Z,76.97
2019-02-04T06:30:00.019Z,78.19
2019-02-04T06:32:30.669Z,77.32
2019-02-04T06:35:00.530Z,76.34
2019-02-04T06:37:30.418Z,76.69
2019-02-04T06:40:00.362Z,77.25
2019-02-04T06:42:30.394Z,77.27
2019-02-04T06:45:00.469Z,77.59
2019-02-04T06:47:30.483Z,76.92
2019-02-04T06:50:00.446Z,77.95
2019-02-04T06:52:30.342Z,76.47
2019-02-04T06:55:01.124Z,77.07
2019-02-04T06:57:31.013Z,79.42
2019-02-04T07:00:00.874Z,81.33
2019-02-04T07:02:30.792Z,82.10
2019-02-04T07:05:00.686Z,83.10
2019-02-04T07:07:30.569Z,82.13
2019-02-04T07:10:00.569Z,82.06
2019-02-04T07:12:31.824Z,81.70
2019-02-04T07:15:01.699Z,82.28
2019-02-04T07:17:31.533Z,83.06
2019-02-04T07:20:01.515Z,83.90
2019-02-04T07:22:31.755Z,84.94
2019-02-04T07:25:02.873Z,85.77
2019-02-04T07:27:32.961Z,86.28
2019-02-04T07:30:02.839Z,87.07
2019-02-04T07:32:33.010Z,87.42
2019-02-04T07:35:02.875Z,88.85
2019-02-04T07:37:32.959Z,88.87
2019-02-04T07:40:02.957Z,88.72
2019-02-04T07:42:32.951Z,88.39
2019-02-04T07:45:03.071Z,88.05
2019-02-04T07:47:33.014Z,87.81
2019-02-04T07:50:02.985Z,87.87
2019-02-04T07:52:32.946Z,87.86
2019-02-04T07:55:02.878Z,87.89
2019-02-04T07:57:32.826Z,88.15
2019-02-04T08:00:02.775Z,88.37
2019-02-04T08:02:32.620Z,88.50
2019-02-04T08:05:02.870Z,88.47
2019-02-04T08:07:32.855Z,88.41
2019-02-04T08:10:02.843Z,88.27
2019-02-04T08:12:32.808Z,88.13
2019-02-04T08:15:02.683Z,87.77
2019-02-04T08:17:32.601Z,87.06
2019-02-04T08:20:02.575Z,85.88
2019-02-04T08:22:32.427Z,84.46
2019-02-04T08:25:02.337Z,84.06
2019-02-04T08:27:32.312Z,83.76
2019-02-04T08:30:02.184Z,82.61
2019-02-04T08:32:32.315Z,81.36
2019-02-04T08:35:02.276Z,80.75
2019-02-04T08:37:32.449Z,79.69
2019-02-04T08:40:02.358Z,78.65
2019-02-04T08:42:35.300Z,78.73
2019-02-04T08:45:03.835Z,77.75
2019-02-04T08:47:33.850Z,77.64
2019-02-04T08:50:03.811Z,76.84
2019-02-04T08:52:33.619Z,76.28
2019-02-04T08:55:03.624Z,76.91
2019-02-04T08:57:34.444Z,77.14
2019-02-04T09:00:05.325Z,76.25
2019-02-04T09:02:35.496Z,76.83
2019-02-04T09:05:06.076Z,76.60
2019-02-04T09:07:36.118Z,76.99
2019-02-04T09:10:06.907Z,77.24
2019-02-04T09:12:37.039Z,77.01
2019-02-04T09:15:10.114Z,77.13
2019-02-04T09:17:40.207Z,76.11
2019-02-04T09:20:11.771Z,76.42
2019-02-04T09:22:42.944Z,75.92
2019-02-04T09:25:14.068Z,75.30
2019-02-04T09:27:43.990Z,75.22
2019-02-04T09:30:19.995Z,75.11
2019-02-04T09:32:50.253Z,74.13
2019-02-04T09:35:22.191Z,73.98
2019-02-04T09:37:52.183Z,73.86
2019-02-04T09:40:28.050Z,73.45
2019-02-04T09:42:58.034Z,72.60
2019-02-04T09:45:28.136Z,72.03
2019-02-04T09:47:58.174Z,72.46
2019-02-04T09:50:28.948Z,71.54
2019-02-04T09:52:58.940Z,71.76
2019-02-04T09:55:31.623Z,70.75
2019-02-04T09:58:02.967Z,71.02
2019-02-04T10:00:34.008Z,70.50
2019-02-04T10:03:04.409Z,71.04
2019-02-04T10:05:34.620Z,70.33
2019-02-04T10:08:05.580Z,69.72
2019-02-04T10:10:35.698Z,69.49
2019-02-04T10:13:07.685Z,69.21
2019-02-04T10:15:39.395Z,68.60
2019-02-04T10:18:10.558Z,67.81
2019-02-04T10:20:40.886Z,67.99
2019-02-04T10:23:11.208Z,67.43
2019-02-04T10:25:42.804Z,67.57
2019-02-04T10:28:13.516Z,67.49
2019-02-04T10:30:45.332Z,67.17
2019-02-04T10:33:15.628Z,66.85
2019-02-04T10:35:45.657Z,66.65
2019-02-04T10:38:16.472Z,66.88
2019-02-04T10:40:46.718Z,66.44
2019-02-04T10:43:18.118Z,66.87
2019-02-04T10:45:48.130Z,66.06
2019-02-04T10:48:18.114Z,65.38
2019-02-04T10:50:49.286Z,65.01
2019-02-04T10:53:19.327Z,65.21
2019-02-04T10:55:49.259Z,65.81
2019-02-04T10:58:19.348Z,66.73
2019-02-04T11:00:49.562Z,67.11
2019-02-04T11:03:20.185Z,66.49
2019-02-04T11:05:50.111Z,65.07
2019-02-04T11:08:20.040Z,63.78
2019-02-04T11:10:49.912Z,64.14
2019-02-04T11:13:20.221Z,63.55
2019-02-04T11:15:50.212Z,63.57
2019-02-04T11:18:20.128Z,62.24
2019-02-04T11:20:57.858Z,62.93
2019-02-04T11:23:22.039Z,62.79
2019-02-04T11:25:51.982Z,61.81
2019-02-04T11:28:22.167Z,61.75
2019-02-04T11:30:58.009Z,61.12
2019-02-04T11:33:27.868Z,61.35
2019-02-04T11:35:57.931Z,61.33
2019-02-04T11:38:28.008Z,62.21
2019-02-04T11:40:58.146Z,62.91
2019-02-04T11:43:28.071Z,62.51
2019-02-04T11:46:00.458Z,62.27
2019-02-04T11:48:30.554Z,61.86
2019-02-04T11:51:09.442Z,61.17
2019-02-04T11:53:33.346Z,60.91
2019-02-04T11:56:03.271Z,61.66
2019-02-04T11:58:33.158Z,62.18
2019-02-04T12:01:03.209Z,63.23
2019-02-04T12:03:33.010Z,64.33
2019-02-04T12:06:02.935Z,65.01
2019-02-04T12:08:32.990Z,64.84
2019-02-04T12:11:22.361Z,65.17
2019-02-04T12:13:52.272Z,65.02
2019-02-04T12:16:22.253Z,65.65
2019-02-04T12:18:52.253Z,66.67
2019-02-04T12:21:22.264Z,66.87
2019-02-04T12:23:52.305Z,66.87
2019-02-04T12:26:22.434Z,66.61
2019-02-04T12:28:52.480Z,66.48
2019-02-04T12:31:22.774Z,66.93
2019-02-04T12:33:52.585Z,66.44
2019-02-04T12:36:22.503Z,65.92
2019-02-04T12:38:52.489Z,66.34
2019-02-04T12:41:22.327Z,66.33
2019-02-04T12:43:52.470Z,65.85
2019-02-04T12:46:22.437Z,65.61
2019-02-04T12:48:52.294Z,65.33
2019-02-04T12:51:32.930Z,65.40
2019-02-04T12:53:54.057Z,65.31
2019-02-04T12:56:24.034Z,65.26
2019-02-04T12:58:55.800Z,65.04
2019-02-04T13:01:25.555Z,65.56
2019-02-04T13:03:56.731Z,65.62
2019-02-04T13:06:26.637Z,65.76
2019-02-04T13:08:59.195Z,66.23
2019-02-04T13:11:29.064Z,66.75
2019-02-04T13:13:58.967Z,66.82
2019-02-04T13:16:28.940Z,67.08
2019-02-04T13:18:58.712Z,66.87
2019-02-04T13:21:28.621Z,66.78
2019-02-04T13:23:58.588Z,66.58
2019-02-04T13:26:28.843Z,66.66
2019-02-04T13:28:58.850Z,66.46
2019-02-04T13:31:30.004Z,66.45
2019-02-04T13:33:59.910Z,66.52
2019-02-04T13:36:29.715Z,66.83
2019-02-04T13:38:59.490Z,66.81
2019-02-04T13:41:29.334Z,66.97
2019-02-04T13:43:59.193Z,67.49
2019-02-04T13:46:29.164Z,67.92
2019-02-04T13:48:59.019Z,68.33
2019-02-04T13:51:30.439Z,69.33
2019-02-04T13:54:00.510Z,70.11
2019-02-04T13:56:30.531Z,69.99
2019-02-04T13:59:00.464Z,69.57
2019-02-04T14:01:30.347Z,68.89
2019-02-04T14:04:00.243Z,68.91
2019-02-04T14:06:30.198Z,69.25
2019-02-04T14:09:00.064Z,68.51
2019-02-04T14:11:29.949Z,68.30
2019-02-04T14:13:59.908Z,68.72
2019-02-04T14:16:29.866Z,68.92
2019-02-04T14:18:59.790Z,67.44
2019-02-04T14:21:29.675Z,67.46
2019-02-04T14:23:59.716Z,67.25
2019-02-04T14:26:29.769Z,67.61
2019-02-04T14:28:59.650Z,67.24
2019-02-04T14:31:29.530Z,66.65
2019-02-04T14:33:59.746Z,67.37
2019-02-04T14:36:29.608Z,67.28
2019-02-04T14:38:59.405Z,68.30
2019-02-04T14:41:30.270Z,68.64
2019-02-04T14:44:20.863Z,69.26
2019-02-04T14:47:20.990Z,69.99
2019-02-04T14:50:22.859Z,70.21
2019-02-04T14:53:29.095Z,70.56
2019-02-04T14:56:46.969Z,71.13
2019-02-04T14:59:34.288Z,71.41
2019-02-04T15:02:40.938Z,71.62
2019-02-04T15:05:44.472Z,71.70
2019-02-04T15:08:45.095Z,72.71
2019-02-04T15:12:01.515Z,73.96
2019-02-04T15:14:58.241Z,74.44
2019-02-04T15:17:56.501Z,75.30
2019-02-04T15:21:22.274Z,75.50
2019-02-04T15:24:32.759Z,76.14
2019-02-04T15:27:41.792Z,78.64
2019-02-04T15:30:22.604Z,82.80
2019-02-04T15:33:27.370Z,83.14
2019-02-04T15:36:29.132Z,83.18
2019-02-04T15:39:24.656Z,83.68
2019-02-04T15:42:43.321Z,84.14
2019-02-04T15:45:47.758Z,84.90
2019-02-04T15:48:33.128Z,84.87
2019-02-04T15:51:25.980Z,84.86
2019-02-04T15:53:57.492Z,85.06
2019-02-04T15:56:27.406Z,85.12
2019-02-04T15:58:57.276Z,85.41
2019-02-04T16:01:27.234Z,85.53
2019-02-04T16:03:57.293Z,85.66
2019-02-04T16:06:27.182Z,85.59
2019-02-04T16:08:56.945Z,86.05
2019-02-04T16:11:26.931Z,86.11
2019-02-04T16:13:56.825Z,85.96
2019-02-04T16:16:26.857Z,85.94
2019-02-04T16:18:56.848Z,85.85
2019-02-04T16:21:27.108Z,85.85
2019-02-04T16:23:57.011Z,86.03
2019-02-04T16:26:26.876Z,86.05
2019-02-04T16:28:56.653Z,86.01
2019-02-04T16:31:26.646Z,86.04
2019-02-04T16:33:56.611Z,86.04
2019-02-04T16:36:27.822Z,86.03
2019-02-04T16:38:57.532Z,85.97
2019-02-04T16:41:27.441Z,85.87
2019-02-04T16:43:58.850Z,85.62
2019-02-04T16:46:28.720Z,85.26
2019-02-04T16:48:58.926Z,84.96
2019-02-04T16:51:29.026Z,85.11
2019-02-04T16:53:59.102Z,85.32
2019-02-04T16:56:29.191Z,85.41
2019-02-04T16:58:59.355Z,85.50
2019-02-04T17:01:29.284Z,85.62
2019-02-04T17:03:59.365Z,86.01
2019-02-04T17:06:29.240Z,85.96
2019-02-04T17:09:02.119Z,85.61
2019-02-04T17:11:30.651Z,85.44
2019-02-04T17:14:00.619Z,85.23
2019-02-04T17:16:30.475Z,85.15
2019-02-04T17:19:00.306Z,85.02
2019-02-04T17:21:30.257Z,85.09
2019-02-04T17:24:00.125Z,85.11
2019-02-04T17:26:30.153Z,85.20
2019-02-04T17:29:00.116Z,85.20
2019-02-04T17:31:30.300Z,85.59
2019-02-04T17:34:00.217Z,85.60
2019-02-04T17:36:30.395Z,85.67
2019-02-04T17:39:00.360Z,85.65
2019-02-04T17:41:30.652Z,85.82
2019-02-04T17:44:00.590Z,85.88
2019-02-04T17:46:30.440Z,85.96
2019-02-04T17:49:00.463Z,86.04
2019-02-04T17:51:32.010Z,86.05
2019-02-04T17:54:05.044Z,86.12
2019-02-04T17:56:33.865Z,86.17
2019-02-04T17:59:04.465Z,86.16
2019-02-04T18:01:34.250Z,86.14
2019-02-04T18:04:04.819Z,86.18
2019-02-04T18:06:34.768Z,86.18
2019-02-04T18:09:07.001Z,86.21
2019-02-04T18:11:37.088Z,86.23
2019-02-04T18:14:07.292Z,86.19
2019-02-04T18:16:37.227Z,86.19
2019-02-04T18:19:07.209Z,85.94
2019-02-04T18:21:37.134Z,86.09
2019-02-04T18:24:07.298Z,86.09
2019-02-04T18:26:37.172Z,86.05
2019-02-04T18:29:09.967Z,85.58
2019-02-04T18:31:39.825Z,85.56
2019-02-04T18:34:09.757Z,85.67
2019-02-04T18:36:39.831Z,85.70
2019-02-04T18:39:11.485Z,85.54
2019-02-04T18:41:41.417Z,85.48
2019-02-04T18:44:11.400Z,85.33
2019-02-04T18:46:41.967Z,85.02
2019-02-04T18:49:11.956Z,85.00
2019-02-04T18:51:41.971Z,84.92
2019-02-04T18:54:11.857Z,85.09
2019-02-04T18:56:41.823Z,84.94
2019-02-04T18:59:11.803Z,84.73
2019-02-04T19:01:41.792Z,84.84
2019-02-04T19:04:15.661Z,84.24
2019-02-04T19:06:48.221Z,84.14
2019-02-04T19:09:18.182Z,84.21
2019-02-04T19:11:47.938Z,83.90
2019-02-04T19:14:17.821Z,83.99
2019-02-04T19:16:47.959Z,83.72
2019-02-04T19:19:17.793Z,83.81
2019-02-04T19:21:47.506Z,84.14
2019-02-04T19:24:18.677Z,84.43
2019-02-04T19:26:48.672Z,84.71
2019-02-04T19:29:18.484Z,84.62
2019-02-04T19:31:48.674Z,84.69
2019-02-04T19:34:18.523Z,84.99
2019-02-04T19:36:48.473Z,85.08
2019-02-04T19:39:18.297Z,84.98
2019-02-04T19:41:48.296Z,85.03
2019-02-04T19:44:18.191Z,85.24
2019-02-04T19:46:48.044Z,85.21
2019-02-04T19:49:17.953Z,85.20
2019-02-04T19:51:47.892Z,85.21
2019-02-04T19:54:21.582Z,85.15
2019-02-04T19:56:49.252Z,85.02
2019-02-04T19:59:21.215Z,85.06
2019-02-04T20:01:50.776Z,85.21
2019-02-04T20:04:21.867Z,85.11
2019-02-04T20:06:51.705Z,84.78
2019-02-04T20:09:21.711Z,84.89
2019-02-04T20:11:51.699Z,84.90
2019-02-04T20:14:21.868Z,84.68
2019-02-04T20:16:51.614Z,84.74
2019-02-04T20:19:21.539Z,84.95
2019-02-04T20:21:51.383Z,84.82
2019-02-04T20:24:32.622Z,84.94
2019-02-04T20:26:52.970Z,85.02
2019-02-04T20:29:24.172Z,85.17
2019-02-04T20:31:54.336Z,84.97
2019-02-04T20:34:24.232Z,84.90
2019-02-04T20:36:54.096Z,84.91
2019-02-04T20:39:23.831Z,84.63
2019-02-04T20:41:53.953Z,84.62
2019-02-04T20:44:23.923Z,84.58
2019-02-04T20:46:53.702Z,84.65
2019-02-04T20:49:23.601Z,84.42
2019-02-04T20:51:53.583Z,84.34
2019-02-04T20:54:23.657Z,84.35
2019-02-04T20:56:53.813Z,84.12
2019-02-04T20:59:23.818Z,84.18
2019-02-04T21:01:53.599Z,84.28
2019-02-04T21:04:23.442Z,84.15
2019-02-04T21:06:56.084Z,84.45
2019-02-04T21:09:24.993Z,84.06
2019-02-04T21:11:54.888Z,84.08
2019-02-04T21:14:24.749Z,83.77
2019-02-04T21:16:54.629Z,83.39
2019-02-04T21:19:24.439Z,83.16
2019-02-04T21:21:54.520Z,83.42
2019-02-04T21:24:24.945Z,83.54
2019-02-04T21:26:54.947Z,83.44
2019-02-04T21:29:24.908Z,83.02
2019-02-04T21:31:54.721Z,82.05
2019-02-04T21:34:24.696Z,81.83
2019-02-04T21:36:54.608Z,82.02
2019-02-04T21:39:24.659Z,81.80
2019-02-04T21:41:54.611Z,82.08
2019-02-04T21:44:24.654Z,82.02
2019-02-04T21:46:55.032Z,82.24
2019-02-04T21:49:25.020Z,82.09
2019-02-04T21:51:54.993Z,82.19
2019-02-04T21:54:25.004Z,81.92
2019-02-04T21:56:54.728Z,81.55
2019-02-04T21:59:24.593Z,81.06
2019-02-04T22:01:54.641Z,81.08
2019-02-04T22:04:24.534Z,81.22
2019-02-04T22:06:54.807Z,81.30
2019-02-04T22:09:25.219Z,80.93
2019-02-04T22:11:55.154Z,80.76
2019-02-04T22:14:25.136Z,81.57
2019-02-04T22:16:55.043Z,82.49
2019-02-04T22:19:25.290Z,83.25
2019-02-04T22:21:55.349Z,83.69
2019-02-04T22:24:25.151Z,83.73
2019-02-04T22:26:55.112Z,83.77
2019-02-04T22:29:25.096Z,84.13
2019-02-04T22:31:54.910Z,84.30
2019-02-04T22:34:24.849Z,84.27
2019-02-04T22:36:54.953Z,84.16
2019-02-04T22:39:25.074Z,84.29
2019-02-04T22:41:54.926Z,83.94
2019-02-04T22:44:24.799Z,83.75
2019-02-04T22:46:54.596Z,83.66
2019-02-04T22:49:24.374Z,83.76
2019-02-04T22:51:54.651Z,83.79
2019-02-04T22:54:25.655Z,84.00
2019-02-04T22:56:55.695Z,84.21
2019-02-04T22:59:25.643Z,84.11
2019-02-04T23:01:57.540Z,84.04
2019-02-04T23:04:27.911Z,83.94
2019-02-04T23:06:57.821Z,83.63
2019-02-04T23:09:28.810Z,83.29
2019-02-04T23:11:58.932Z,83.28
2019-02-04T23:14:28.806Z,83.07
2019-02-04T23:16:59.180Z,83.12
2019-02-04T23:19:29.146Z,83.17
2019-02-04T23:21:59.184Z,83.26
2019-02-04T23:24:29.051Z,83.50
2019-02-04T23:26:59.030Z,83.20
2019-02-04T23:29:28.914Z,82.89
2019-02-04T23:31:59.096Z,82.70
2019-02-04T23:34:28.969Z,82.67
2019-02-04T23:36:58.714Z,82.63
2019-02-04T23:39:28.631Z,82.65
2019-02-04T23:41:58.616Z,82.72
2019-02-04T23:44:28.439Z,83.00
2019-02-04T23:46:58.295Z,82.94
2019-02-04T23:49:28.052Z,83.32
2019-02-04T23:51:57.754Z,82.64
2019-02-04T23:54:27.641Z,82.17
2019-02-04T23:56:57.544Z,82.41
2019-02-04T23:59:27.982Z,82.04
